sensor_id;sensor_type;location;lat;lon;timestamp;pressure;altitude;pressure_sealevel;temperature;humidity
5284;BME280;15377;48.540;9.268;2023-02-01T00:01:49;98186.28;;;3.47;100.00
5284;BME280;15377;48.540;9.268;2023-02-01T00:04:14;98194.09;;;3.45;100.00
5284;BME280;15377;48.540;9.268;2023-02-01T00:06:39;98178.56;;;3.42;100.00
5284;BME280;15377;48.540;9.268;2023-02-01T00:09:05;98175.13;;;3.38;100.00
5284;BME280;15377;48.540;9.268;2023-02-01T00:11:30;98176.66;;;3.39;100.00
5284;BME280;15377;48.540;9.268;2023-02-01T00:13:56;98169.75;;;3.31;100.00
5284;BME280;15377;48.540;9.268;2023-02-01T00:16:24;98173.22;;;3.35;100.00
5284;BME280;15377;48.540;9.268;2023-02-01T00:18:51;98167.38;;;3.33;100.00
5284;BME280;15377;48.540;9.268;2023-02-01T00:21:22;98171.28;;;3.32;100.00
5284;BME280;15377;48.540;9.268;2023-02-01T00:23:47;98172.81;;;3.33;100.00
5284;BME280;15377;48.540;9.268;2023-02-01T00:26:18;98165.84;;;3.32;100.00
5284;BME280;15377;48.540;9.268;2023-02-01T00:28:45;98167.38;;;3.33;100.00
5284;BME280;15377;48.540;9.268;2023-02-01T00:31:10;98163.88;;;3.36;100.00
5284;BME280;15377;48.540;9.268;2023-02-01T00:33:36;98158.78;;;3.38;100.00
5284;BME280;15377;48.540;9.268;2023-02-01T00:36:04;98158.78;;;3.38;100.00
5284;BME280;15377;48.540;9.268;2023-02-01T00:38:31;98155.25;;;3.41;100.00
5284;BME280;15377;48.540;9.268;2023-02-01T00:41:04;98150.19;;;3.43;100.00
5284;BME280;15377;48.540;9.268;2023-02-01T00:43:31;98146.28;;;3.44;100.00
5284;BME280;15377;48.540;9.268;2023-02-01T00:45:57;98152.09;;;3.46;100.00
5284;BME280;15377;48.540;9.268;2023-02-01T00:48:23;98143.94;;;3.46;100.00
5284;BME280;15377;48.540;9.268;2023-02-01T00:50:48;98145.06;;;3.48;100.00
5284;BME280;15377;48.540;9.268;2023-02-01T00:53:14;98140.38;;;3.49;100.00
5284;BME280;15377;48.540;9.268;2023-02-01T00:55:39;98147.75;;;3.52;100.00
5284;BME280;15377;48.540;9.268;2023-02-01T00:58:04;98147.75;;;3.52;100.00
5284;BME280;15377;48.540;9.268;2023-02-01T01:00:32;98123.00;;;3.43;100.00
5284;BME280;15377;48.540;9.268;2023-02-01T01:02:57;98134.06;;;3.59;100.00
5284;BME280;15377;48.540;9.268;2023-02-01T01:05:22;98122.13;;;3.49;100.00
5284;BME280;15377;48.540;9.268;2023-02-01T01:07:48;98121.25;;;3.56;100.00
5284;BME280;15377;48.540;9.268;2023-02-01T01:10:14;98121.25;;;3.56;100.00
5284;BME280;15377;48.540;9.268;2023-02-01T01:12:39;98120.84;;;3.57;100.00
5284;BME280;15377;48.540;9.268;2023-02-01T01:15:06;98121.63;;;3.58;100.00
5284;BME280;15377;48.540;9.268;2023-02-01T01:17:32;98118.53;;;3.56;100.00
5284;BME280;15377;48.540;9.268;2023-02-01T01:19:57;98127.13;;;3.54;100.00
5284;BME280;15377;48.540;9.268;2023-02-01T01:22:22;98122.84;;;3.53;100.00
5284;BME280;15377;48.540;9.268;2023-02-01T01:24:48;98131.00;;;3.53;100.00
5284;BME280;15377;48.540;9.268;2023-02-01T01:27:13;98122.06;;;3.53;100.00
5284;BME280;15377;48.540;9.268;2023-02-01T01:29:39;98111.19;;;3.53;100.00
5284;BME280;15377;48.540;9.268;2023-02-01T01:32:04;98109.91;;;3.61;100.00
5284;BME280;15377;48.540;9.268;2023-02-01T01:34:29;98110.28;;;3.63;100.00
5284;BME280;15377;48.540;9.268;2023-02-01T01:36:55;98111.06;;;3.63;100.00
5284;BME280;15377;48.540;9.268;2023-02-01T01:39:20;98112.59;;;3.64;100.00
5284;BME280;15377;48.540;9.268;2023-02-01T01:41:45;98098.59;;;3.66;100.00
5284;BME280;15377;48.540;9.268;2023-02-01T01:47:15;98103.56;;;3.71;100.00
5284;BME280;15377;48.540;9.268;2023-02-01T01:49:41;98100.84;;;3.71;100.00
5284;BME280;15377;48.540;9.268;2023-02-01T01:52:07;98103.91;;;3.73;100.00
5284;BME280;15377;48.540;9.268;2023-02-01T01:54:38;98098.84;;;3.75;100.00
5284;BME280;15377;48.540;9.268;2023-02-01T01:57:11;98088.81;;;3.68;100.00
5284;BME280;15377;48.540;9.268;2023-02-01T01:59:42;98098.38;;;3.80;100.00
5284;BME280;15377;48.540;9.268;2023-02-01T02:02:09;98102.25;;;3.82;100.00
5284;BME280;15377;48.540;9.268;2023-02-01T02:04:35;98090.94;;;3.84;100.00
5284;BME280;15377;48.540;9.268;2023-02-01T02:07:04;98087.44;;;3.83;100.00
5284;BME280;15377;48.540;9.268;2023-02-01T02:09:29;98081.19;;;3.86;100.00
5284;BME280;15377;48.540;9.268;2023-02-01T02:11:54;98081.16;;;3.90;100.00
5284;BME280;15377;48.540;9.268;2023-02-01T02:14:22;98074.13;;;3.89;100.00
5284;BME280;15377;48.540;9.268;2023-02-01T02:22:43;98084.47;;;4.01;100.00
5284;BME280;15377;48.540;9.268;2023-02-01T02:26:01;98077.44;;;4.03;100.00
5284;BME280;15377;48.540;9.268;2023-02-01T02:28:58;98074.72;;;4.03;100.00
5284;BME280;15377;48.540;9.268;2023-02-01T02:31:54;98076.91;;;4.12;100.00
5284;BME280;15377;48.540;9.268;2023-02-01T02:34:29;98073.00;;;4.13;100.00
5284;BME280;15377;48.540;9.268;2023-02-01T02:37:18;98077.63;;;4.16;100.00
5284;BME280;15377;48.540;9.268;2023-02-01T02:42:51;98079.06;;;4.24;100.00
5284;BME280;15377;48.540;9.268;2023-02-01T02:45:55;98054.31;;;4.15;100.00
5284;BME280;15377;48.540;9.268;2023-02-01T02:49:08;98060.09;;;4.17;100.00
5284;BME280;15377;48.540;9.268;2023-02-01T02:51:42;98067.38;;;4.23;100.00
5284;BME280;15377;48.540;9.268;2023-02-01T02:54:35;98066.63;;;4.23;100.00
5284;BME280;15377;48.540;9.268;2023-02-01T02:57:14;98053.16;;;4.12;100.00
5284;BME280;15377;48.540;9.268;2023-02-01T03:00:03;98055.84;;;4.16;100.00
5284;BME280;15377;48.540;9.268;2023-02-01T03:02:49;98053.53;;;4.14;100.00
5284;BME280;15377;48.540;9.268;2023-02-01T03:05:39;98050.09;;;4.10;100.00
5284;BME280;15377;48.540;9.268;2023-02-01T03:08:12;98052.75;;;4.14;100.00
5284;BME280;15377;48.540;9.268;2023-02-01T03:10:45;98059.03;;;4.11;100.00
5284;BME280;15377;48.540;9.268;2023-02-01T03:16:01;98055.91;;;4.12;100.00
5284;BME280;15377;48.540;9.268;2023-02-01T03:18:45;98062.09;;;4.13;100.00
5284;BME280;15377;48.540;9.268;2023-02-01T03:21:21;98049.41;;;4.03;100.00
5284;BME280;15377;48.540;9.268;2023-02-01T03:23:50;98063.72;;;4.10;100.00
5284;BME280;15377;48.540;9.268;2023-02-01T03:26:19;98062.19;;;4.09;100.00
5284;BME280;15377;48.540;9.268;2023-02-01T03:28:56;98056.34;;;4.07;100.00
5284;BME280;15377;48.540;9.268;2023-02-01T03:31:23;98056.72;;;4.09;100.00
5284;BME280;15377;48.540;9.268;2023-02-01T03:33:49;98053.63;;;4.07;100.00
5284;BME280;15377;48.540;9.268;2023-02-01T03:39:04;98045.09;;;4.05;100.00
5284;BME280;15377;48.540;9.268;2023-02-01T03:41:47;98042.03;;;4.03;100.00
5284;BME280;15377;48.540;9.268;2023-02-01T03:44:29;98034.22;;;4.05;100.00
5284;BME280;15377;48.540;9.268;2023-02-01T03:47:04;98029.16;;;4.04;100.00
5284;BME280;15377;48.540;9.268;2023-02-01T03:52:00;98039.50;;;4.16;100.00
5284;BME280;15377;48.540;9.268;2023-02-01T03:54:28;98033.66;;;4.17;100.00
5284;BME280;15377;48.540;9.268;2023-02-01T03:56:56;98037.00;;;4.25;100.00
5284;BME280;15377;48.540;9.268;2023-02-01T03:59:23;98043.25;;;4.25;100.00
5284;BME280;15377;48.540;9.268;2023-02-01T04:01:49;98044.41;;;4.24;100.00
5284;BME280;15377;48.540;9.268;2023-02-01T04:04:15;98042.47;;;4.25;100.00
5284;BME280;15377;48.540;9.268;2023-02-01T04:06:46;98050.22;;;4.26;100.00
5284;BME280;15377;48.540;9.268;2023-02-01T04:09:12;98040.06;;;4.27;100.00
5284;BME280;15377;48.540;9.268;2023-02-01T04:11:37;98027.66;;;4.26;100.00
5284;BME280;15377;48.540;9.268;2023-02-01T04:14:02;98022.91;;;4.30;100.00
5284;BME280;15377;48.540;9.268;2023-02-01T04:16:32;98020.13;;;4.33;100.00
5284;BME280;15377;48.540;9.268;2023-02-01T04:18:58;98019.69;;;4.35;100.00
5284;BME280;15377;48.540;9.268;2023-02-01T04:21:25;98025.59;;;4.33;100.00
5284;BME280;15377;48.540;9.268;2023-02-01T04:23:50;98018.88;;;4.38;100.00
5284;BME280;15377;48.540;9.268;2023-02-01T04:26:16;98010.34;;;4.36;100.00
5284;BME280;15377;48.540;9.268;2023-02-01T04:28:42;98016.28;;;4.31;100.00
5284;BME280;15377;48.540;9.268;2023-02-01T04:31:07;98017.81;;;4.32;100.00
5284;BME280;15377;48.540;9.268;2023-02-01T04:33:32;97997.91;;;4.35;100.00
5284;BME280;15377;48.540;9.268;2023-02-01T04:35:58;98021.25;;;4.36;100.00
5284;BME280;15377;48.540;9.268;2023-02-01T04:38:23;98034.09;;;4.35;100.00
5284;BME280;15377;48.540;9.268;2023-02-01T04:40:48;98032.13;;;4.36;100.00
5284;BME280;15377;48.540;9.268;2023-02-01T04:43:15;98035.28;;;4.34;100.00
5284;BME280;15377;48.540;9.268;2023-02-01T04:45:40;98042.28;;;4.35;100.00
5284;BME280;15377;48.540;9.268;2023-02-01T04:48:06;98056.31;;;4.34;100.00
5284;BME280;15377;48.540;9.268;2023-02-01T04:50:31;98049.31;;;4.33;100.00
5284;BME280;15377;48.540;9.268;2023-02-01T04:52:56;98060.22;;;4.33;100.00
5284;BME280;15377;48.540;9.268;2023-02-01T04:55:22;98050.56;;;4.28;100.00
5284;BME280;15377;48.540;9.268;2023-02-01T04:57:47;98027.19;;;4.31;100.00
5284;BME280;15377;48.540;9.268;2023-02-01T05:00:13;98030.72;;;4.28;100.00
5284;BME280;15377;48.540;9.268;2023-02-01T05:02:38;98009.75;;;4.25;100.00
5284;BME280;15377;48.540;9.268;2023-02-01T05:05:04;98015.22;;;4.25;100.00
5284;BME280;15377;48.540;9.268;2023-02-01T05:07:30;98011.31;;;4.26;100.00
5284;BME280;15377;48.540;9.268;2023-02-01T05:09:55;98005.84;;;4.26;100.00
5284;BME280;15377;48.540;9.268;2023-02-01T05:12:20;98003.53;;;4.24;100.00
5284;BME280;15377;48.540;9.268;2023-02-01T05:15:05;98015.22;;;4.25;100.00
5284;BME280;15377;48.540;9.268;2023-02-01T05:17:30;98016.75;;;4.26;100.00
5284;BME280;15377;48.540;9.268;2023-02-01T05:19:56;98033.09;;;4.26;100.00
5284;BME280;15377;48.540;9.268;2023-02-01T05:22:21;98022.25;;;4.22;100.00
5284;BME280;15377;48.540;9.268;2023-02-01T05:24:46;98026.94;;;4.22;100.00
5284;BME280;15377;48.540;9.268;2023-02-01T05:27:12;98013.69;;;4.24;100.00
5284;BME280;15377;48.540;9.268;2023-02-01T05:29:37;98014.03;;;4.26;100.00
5284;BME280;15377;48.540;9.268;2023-02-01T05:32:03;98012.84;;;4.27;100.00
5284;BME280;15377;48.540;9.268;2023-02-01T05:34:28;98009.66;;;4.32;100.00
5284;BME280;15377;48.540;9.268;2023-02-01T05:36:54;98023.63;;;4.34;100.00
5284;BME280;15377;48.540;9.268;2023-02-01T05:39:19;98009.75;;;4.25;100.00
5284;BME280;15377;48.540;9.268;2023-02-01T05:41:44;98013.44;;;4.38;100.00
5284;BME280;15377;48.540;9.268;2023-02-01T05:44:10;97997.22;;;4.31;100.00
5284;BME280;15377;48.540;9.268;2023-02-01T05:46:36;98014.19;;;4.38;100.00
5284;BME280;15377;48.540;9.268;2023-02-01T05:49:02;98015.78;;;4.36;100.00
5284;BME280;15377;48.540;9.268;2023-02-01T05:51:27;98026.63;;;4.39;100.00
5284;BME280;15377;48.540;9.268;2023-02-01T05:53:52;98017.63;;;4.42;100.00
5284;BME280;15377;48.540;9.268;2023-02-01T05:56:18;98036.28;;;4.44;100.00
5284;BME280;15377;48.540;9.268;2023-02-01T05:58:43;98034.34;;;4.44;100.00
5284;BME280;15377;48.540;9.268;2023-02-01T06:01:08;98036.66;;;4.46;100.00
5284;BME280;15377;48.540;9.268;2023-02-01T06:03:34;98035.59;;;4.40;100.00
5284;BME280;15377;48.540;9.268;2023-02-01T06:05:59;98050.63;;;4.48;100.00
5284;BME280;15377;48.540;9.268;2023-02-01T06:08:26;98052.09;;;4.52;100.00
5284;BME280;15377;48.540;9.268;2023-02-01T06:11:00;98037.84;;;4.45;100.00
5284;BME280;15377;48.540;9.268;2023-02-01T06:13:26;98035.13;;;4.45;100.00
5284;BME280;15377;48.540;9.268;2023-02-01T06:15:51;98046.72;;;4.49;100.00
5284;BME280;15377;48.540;9.268;2023-02-01T06:18:17;98053.88;;;4.39;100.00
5284;BME280;15377;48.540;9.268;2023-02-01T06:20:43;98052.28;;;4.42;100.00
5284;BME280;15377;48.540;9.268;2023-02-01T06:23:08;98049.84;;;4.47;100.00
5284;BME280;15377;48.540;9.268;2023-02-01T06:25:33;98040.56;;;4.45;100.00
5284;BME280;15377;48.540;9.268;2023-02-01T06:28:02;98046.03;;;4.45;100.00
5284;BME280;15377;48.540;9.268;2023-02-01T06:30:31;98056.78;;;4.52;100.00
5284;BME280;15377;48.540;9.268;2023-02-01T06:32:56;98063.78;;;4.53;100.00
5284;BME280;15377;48.540;9.268;2023-02-01T06:35:21;98062.88;;;4.59;100.00
5284;BME280;15377;48.540;9.268;2023-02-01T06:37:47;98066.69;;;4.65;100.00
5284;BME280;15377;48.540;9.268;2023-02-01T06:40:12;98063.88;;;4.69;100.00
5284;BME280;15377;48.540;9.268;2023-02-01T06:42:38;98074.28;;;4.74;100.00
5284;BME280;15377;48.540;9.268;2023-02-01T06:45:03;98072.88;;;4.66;100.00
5284;BME280;15377;48.540;9.268;2023-02-01T06:47:29;98089.34;;;4.59;100.00
5284;BME280;15377;48.540;9.268;2023-02-01T06:49:54;98091.16;;;4.46;100.00
5284;BME280;15377;48.540;9.268;2023-02-01T06:52:20;98083.31;;;4.25;100.00
5284;BME280;15377;48.540;9.268;2023-02-01T06:54:45;98063.66;;;4.14;100.00
5284;BME280;15377;48.540;9.268;2023-02-01T06:57:10;98043.97;;;4.03;100.00
5284;BME280;15377;48.540;9.268;2023-02-01T06:59:36;98031.94;;;4.00;100.00
5284;BME280;15377;48.540;9.268;2023-02-01T07:02:01;98036.69;;;3.96;100.00
5284;BME280;15377;48.540;9.268;2023-02-01T07:04:27;98028.22;;;3.91;100.00
5284;BME280;15377;48.540;9.268;2023-02-01T07:06:52;98023.47;;;3.95;100.00
5284;BME280;15377;48.540;9.268;2023-02-01T07:09:17;97995.03;;;3.73;100.00
5284;BME280;15377;48.540;9.268;2023-02-01T07:11:43;98024.72;;;3.90;100.00
5284;BME280;15377;48.540;9.268;2023-02-01T07:14:10;98014.66;;;3.87;100.00
5284;BME280;15377;48.540;9.268;2023-02-01T07:16:36;98003.09;;;3.80;100.00
5284;BME280;15377;48.540;9.268;2023-02-01T07:19:02;98042.78;;;4.04;100.00
5284;BME280;15377;48.540;9.268;2023-02-01T07:21:27;98044.28;;;4.08;100.00
5284;BME280;15377;48.540;9.268;2023-02-01T07:23:53;98063.66;;;4.14;100.00
5284;BME280;15377;48.540;9.268;2023-02-01T07:26:19;98058.91;;;4.18;100.00
5284;BME280;15377;48.540;9.268;2023-02-01T07:28:44;98048.78;;;4.18;100.00
5284;BME280;15377;48.540;9.268;2023-02-01T07:31:19;98058.03;;;4.24;100.00
5284;BME280;15377;48.540;9.268;2023-02-01T07:33:47;98064.25;;;4.25;100.00
5284;BME280;15377;48.540;9.268;2023-02-01T07:36:15;98064.59;;;4.27;100.00
5284;BME280;15377;48.540;9.268;2023-02-01T07:38:41;98083.66;;;4.27;100.00
5284;BME280;15377;48.540;9.268;2023-02-01T07:41:07;98082.84;;;4.30;100.00
5284;BME280;15377;48.540;9.268;2023-02-01T07:43:33;98078.09;;;4.34;100.00
5284;BME280;15377;48.540;9.268;2023-02-01T07:45:59;98082.03;;;4.33;100.00
5284;BME280;15377;48.540;9.268;2023-02-01T07:48:26;98075.78;;;4.32;100.00
5284;BME280;15377;48.540;9.268;2023-02-01T07:53:24;98081.31;;;4.29;100.00
5284;BME280;15377;48.540;9.268;2023-02-01T07:55:50;98101.44;;;4.35;100.00
5284;BME280;15377;48.540;9.268;2023-02-01T07:58:15;98102.16;;;4.39;100.00
5284;BME280;15377;48.540;9.268;2023-02-01T08:00:40;98102.88;;;4.43;100.00
5284;BME280;15377;48.540;9.268;2023-02-01T08:03:24;98094.56;;;4.50;100.00
5284;BME280;15377;48.540;9.268;2023-02-01T08:05:54;98097.59;;;4.55;100.00
5284;BME280;15377;48.540;9.268;2023-02-01T08:08:19;98102.19;;;4.62;100.00
5284;BME280;15377;48.540;9.268;2023-02-01T08:10:45;98100.50;;;4.68;100.00
5284;BME280;15377;48.540;9.268;2023-02-01T08:13:10;98103.94;;;4.72;100.00
5284;BME280;15377;48.540;9.268;2023-02-01T08:15:35;98098.78;;;4.77;100.00
5284;BME280;15377;48.540;9.268;2023-02-01T08:18:01;98096.81;;;4.78;100.00
5284;BME280;15377;48.540;9.268;2023-02-01T08:20:27;98093.66;;;4.79;100.00
5284;BME280;15377;48.540;9.268;2023-02-01T08:22:53;98106.84;;;4.84;100.00
5284;BME280;15377;48.540;9.268;2023-02-01T08:25:19;98107.50;;;4.92;100.00
5284;BME280;15377;48.540;9.268;2023-02-01T08:27:45;98097.91;;;4.84;100.00
5284;BME280;15377;48.540;9.268;2023-02-01T08:30:11;98112.94;;;4.92;100.00
5284;BME280;15377;48.540;9.268;2023-02-01T08:32:37;98115.16;;;4.97;100.00
5284;BME280;15377;48.540;9.268;2023-02-01T08:35:03;98111.97;;;5.02;100.00
5284;BME280;15377;48.540;9.268;2023-02-01T08:37:29;98105.72;;;5.01;100.00
5284;BME280;15377;48.540;9.268;2023-02-01T08:39:54;98093.56;;;5.06;100.00
5284;BME280;15377;48.540;9.268;2023-02-01T08:42:20;98089.31;;;5.05;100.00
5284;BME280;15377;48.540;9.268;2023-02-01T08:45:04;98096.03;;;5.20;100.00
5284;BME280;15377;48.540;9.268;2023-02-01T08:47:30;98095.91;;;5.27;100.00
5284;BME280;15377;48.540;9.268;2023-02-01T08:49:55;98097.38;;;5.31;100.00
5284;BME280;15377;48.540;9.268;2023-02-01T08:52:21;98122.19;;;5.37;100.00
5284;BME280;15377;48.540;9.268;2023-02-01T08:54:46;98117.31;;;5.48;100.00
5284;BME280;15377;48.540;9.268;2023-02-01T08:57:11;98113.00;;;5.66;100.00
5284;BME280;15377;48.540;9.268;2023-02-01T08:59:37;98126.09;;;5.75;100.00
5284;BME280;15377;48.540;9.268;2023-02-01T09:02:03;98138.38;;;5.86;100.00
5284;BME280;15377;48.540;9.268;2023-02-01T09:04:28;98126.06;;;6.14;100.00
5284;BME280;15377;48.540;9.268;2023-02-01T09:06:53;98122.44;;;6.01;100.00
5284;BME280;15377;48.540;9.268;2023-02-01T09:09:23;98119.78;;;5.78;100.00
5284;BME280;15377;48.540;9.268;2023-02-01T09:11:48;98124.97;;;5.72;100.00
5284;BME280;15377;48.540;9.268;2023-02-01T09:14:15;98114.72;;;5.41;100.00
5284;BME280;15377;48.540;9.268;2023-02-01T09:16:41;98131.44;;;5.43;100.00
5284;BME280;15377;48.540;9.268;2023-02-01T09:19:06;98131.59;;;5.36;100.00
5284;BME280;15377;48.540;9.268;2023-02-01T09:21:31;98134.94;;;5.24;100.00
5284;BME280;15377;48.540;9.268;2023-02-01T09:23:58;98124.16;;;5.17;100.00
5284;BME280;15377;48.540;9.268;2023-02-01T09:26:24;98137.44;;;5.15;100.00
5284;BME280;15377;48.540;9.268;2023-02-01T09:28:50;98148.34;;;5.15;100.00
5284;BME280;15377;48.540;9.268;2023-02-01T09:31:16;98154.66;;;5.12;100.00
5284;BME280;15377;48.540;9.268;2023-02-01T09:33:41;98146.13;;;5.10;100.00
5284;BME280;15377;48.540;9.268;2023-02-01T09:36:06;98146.94;;;5.07;100.00
5284;BME280;15377;48.540;9.268;2023-02-01T09:38:32;98132.81;;;5.12;100.00
5284;BME280;15377;48.540;9.268;2023-02-01T09:40:58;98128.16;;;5.12;100.00
5284;BME280;15377;48.540;9.268;2023-02-01T09:46:27;98126.69;;;5.08;100.00
5284;BME280;15377;48.540;9.268;2023-02-01T09:48:56;98143.53;;;5.22;100.00
5284;BME280;15377;48.540;9.268;2023-02-01T09:51:26;98140.69;;;5.29;100.00
5284;BME280;15377;48.540;9.268;2023-02-01T09:54:09;98159.72;;;5.33;100.00
5284;BME280;15377;48.540;9.268;2023-02-01T09:56:39;98163.47;;;5.39;100.00
5284;BME280;15377;48.540;9.268;2023-02-01T10:01:40;98155.88;;;5.50;100.00
5284;BME280;15377;48.540;9.268;2023-02-01T10:04:13;98157.88;;;5.46;100.00
5284;BME280;15377;48.540;9.268;2023-02-01T10:12:22;98146.44;;;5.54;100.00
5284;BME280;15377;48.540;9.268;2023-02-01T10:28:43;98167.56;;;5.70;100.00
5284;BME280;15377;48.540;9.268;2023-02-01T10:31:09;98167.47;;;5.73;100.00
5284;BME280;15377;48.540;9.268;2023-02-01T10:33:41;98160.69;;;5.62;100.00
5284;BME280;15377;48.540;9.268;2023-02-01T10:36:40;98182.31;;;5.72;100.00
5284;BME280;15377;48.540;9.268;2023-02-01T10:39:06;98166.16;;;5.62;100.00
5284;BME280;15377;48.540;9.268;2023-02-01T10:41:38;98173.09;;;5.66;100.00
5284;BME280;15377;48.540;9.268;2023-02-01T10:44:09;98182.31;;;5.72;100.00
5284;BME280;15377;48.540;9.268;2023-02-01T10:46:36;98185.50;;;5.71;100.00
5284;BME280;15377;48.540;9.268;2023-02-01T10:49:04;98187.84;;;5.69;100.00
5284;BME280;15377;48.540;9.268;2023-02-01T10:52:05;98193.25;;;5.72;100.00
5284;BME280;15377;48.540;9.268;2023-02-01T10:54:37;98192.34;;;5.79;100.00
5284;BME280;15377;48.540;9.268;2023-02-01T10:57:11;98200.94;;;5.81;100.00
5284;BME280;15377;48.540;9.268;2023-02-01T10:59:44;98195.88;;;5.79;100.00
5284;BME280;15377;48.540;9.268;2023-02-01T11:02:33;98197.00;;;5.82;100.00
5284;BME280;15377;48.540;9.268;2023-02-01T11:05:08;98182.25;;;5.76;100.00
5284;BME280;15377;48.540;9.268;2023-02-01T11:07:36;98176.53;;;5.70;100.00
5284;BME280;15377;48.540;9.268;2023-02-01T11:10:02;98176.88;;;5.72;100.00
5284;BME280;15377;48.540;9.268;2023-02-01T11:12:31;98172.19;;;5.73;100.00
5284;BME280;15377;48.540;9.268;2023-02-01T11:15:22;98166.72;;;5.73;100.00
5284;BME280;15377;48.540;9.268;2023-02-01T11:17:50;98157.69;;;5.76;100.00
5284;BME280;15377;48.540;9.268;2023-02-01T11:20:34;98154.28;;;5.72;100.00
5284;BME280;15377;48.540;9.268;2023-02-01T11:23:01;98153.28;;;5.62;100.00
5284;BME280;15377;48.540;9.268;2023-02-01T11:25:26;98161.06;;;5.64;100.00
5284;BME280;15377;48.540;9.268;2023-02-01T11:27:54;98160.69;;;5.62;100.00
5284;BME280;15377;48.540;9.268;2023-02-01T11:30:36;98163.88;;;5.60;100.00
5284;BME280;15377;48.540;9.268;2023-02-01T11:33:03;98161.53;;;5.59;100.00
5284;BME280;15377;48.540;9.268;2023-02-01T11:35:30;98166.66;;;5.57;100.00
5284;BME280;15377;48.540;9.268;2023-02-01T11:38:00;98160.00;;;5.58;100.00
5284;BME280;15377;48.540;9.268;2023-02-01T11:40:29;98162.41;;;5.56;100.00
5284;BME280;15377;48.540;9.268;2023-02-01T11:43:07;98159.16;;;5.61;100.00
5284;BME280;15377;48.540;9.268;2023-02-01T11:45:33;98159.81;;;5.68;100.00
5284;BME280;15377;48.540;9.268;2023-02-01T11:48:00;98144.81;;;5.76;100.00
5284;BME280;15377;48.540;9.268;2023-02-01T11:53:02;98133.09;;;5.76;100.00
5284;BME280;15377;48.540;9.268;2023-02-01T12:03:54;98102.22;;;5.98;100.00
5284;BME280;15377;48.540;9.268;2023-02-01T12:09:56;98077.97;;;6.00;100.00
5284;BME280;15377;48.540;9.268;2023-02-01T12:12:17;98079.50;;;6.01;100.00
5284;BME280;15377;48.540;9.268;2023-02-01T12:18:08;98078.94;;;6.10;100.00
5284;BME280;15377;48.540;9.268;2023-02-01T12:20:45;98075.69;;;6.15;100.00
5284;BME280;15377;48.540;9.268;2023-02-01T12:42:40;98079.56;;;5.82;100.00
5284;BME280;15377;48.540;9.268;2023-02-01T12:47:42;98072.69;;;5.74;100.00
5284;BME280;15377;48.540;9.268;2023-02-01T12:50:20;98070.59;;;5.81;100.00
5284;BME280;15377;48.540;9.268;2023-02-01T12:52:49;98060.31;;;5.69;100.00
5284;BME280;15377;48.540;9.268;2023-02-01T12:55:35;98072.97;;;5.79;100.00
5284;BME280;15377;48.540;9.268;2023-02-01T12:58:08;98078.81;;;5.78;100.00
5284;BME280;15377;48.540;9.268;2023-02-01T13:00:47;98068.56;;;5.66;100.00
5284;BME280;15377;48.540;9.268;2023-02-01T13:03:33;98073.81;;;5.76;100.00
5284;BME280;15377;48.540;9.268;2023-02-01T13:06:08;98069.94;;;5.74;100.00
5284;BME280;15377;48.540;9.268;2023-02-01T13:08:38;98080.88;;;5.74;100.00
5284;BME280;15377;48.540;9.268;2023-02-01T13:11:23;98069.09;;;5.77;100.00
5284;BME280;15377;48.540;9.268;2023-02-01T13:16:43;98080.53;;;5.72;100.00
5284;BME280;15377;48.540;9.268;2023-02-01T13:19:16;98064.78;;;5.60;100.00
5284;BME280;15377;48.540;9.268;2023-02-01T13:21:47;98090.41;;;5.66;100.00
5284;BME280;15377;48.540;9.268;2023-02-01T13:24:27;98079.78;;;5.52;100.00
5284;BME280;15377;48.540;9.268;2023-02-01T13:26:55;98095.16;;;5.62;100.00
5284;BME280;15377;48.540;9.268;2023-02-01T13:29:23;98097.22;;;5.58;100.00
5284;BME280;15377;48.540;9.268;2023-02-01T13:42:54;98076.38;;;5.48;100.00
5284;BME280;15377;48.540;9.268;2023-02-01T13:45:23;98069.38;;;5.47;100.00
5284;BME280;15377;48.540;9.268;2023-02-01T13:47:51;98072.88;;;5.47;100.00
5284;BME280;15377;48.540;9.268;2023-02-01T13:52:55;98064.41;;;5.42;100.00
5284;BME280;15377;48.540;9.268;2023-02-01T13:57:58;98084.19;;;5.46;100.00
5284;BME280;15377;48.540;9.268;2023-02-01T14:00:34;98084.56;;;5.48;100.00
5284;BME280;15377;48.540;9.268;2023-02-01T14:13:24;98060.78;;;5.64;100.00
5284;BME280;15377;48.540;9.268;2023-02-01T14:21:18;98071.25;;;5.50;100.00
5284;BME280;15377;48.540;9.268;2023-02-01T14:23:46;98058.47;;;5.47;100.00
5284;BME280;15377;48.540;9.268;2023-02-01T14:26:15;98063.22;;;5.43;100.00
5284;BME280;15377;48.540;9.268;2023-02-01T14:28:45;98068.34;;;5.41;100.00
5284;BME280;15377;48.540;9.268;2023-02-01T14:31:31;98056.78;;;5.33;100.00
5284;BME280;15377;48.540;9.268;2023-02-01T14:33:58;98052.78;;;5.38;100.00
5284;BME280;15377;48.540;9.268;2023-02-01T14:36:26;98059.56;;;5.49;100.00
5284;BME280;15377;48.540;9.268;2023-02-01T14:38:52;98045.50;;;5.51;100.00
5284;BME280;15377;48.540;9.268;2023-02-01T14:41:24;98052.50;;;5.52;100.00
5284;BME280;15377;48.540;9.268;2023-02-01T14:50:17;98058.81;;;5.49;100.00
5284;BME280;15377;48.540;9.268;2023-02-01T14:52:47;98057.69;;;5.46;100.00
5284;BME280;15377;48.540;9.268;2023-02-01T14:55:18;98071.25;;;5.50;100.00
5284;BME280;15377;48.540;9.268;2023-02-01T14:57:49;98073.28;;;5.46;100.00
5284;BME280;15377;48.540;9.268;2023-02-01T15:00:25;98072.53;;;5.45;100.00
5284;BME280;15377;48.540;9.268;2023-02-01T15:02:52;98076.78;;;5.46;100.00
5284;BME280;15377;48.540;9.268;2023-02-01T15:05:29;98071.66;;;5.48;100.00
5284;BME280;15377;48.540;9.268;2023-02-01T15:08:05;98076.94;;;5.39;100.00
5284;BME280;15377;48.540;9.268;2023-02-01T15:10:41;98082.31;;;5.43;100.00
5284;BME280;15377;48.540;9.268;2023-02-01T15:13:18;98087.28;;;5.48;100.00
5284;BME280;15377;48.540;9.268;2023-02-01T15:15:44;98093.94;;;5.47;100.00
5284;BME280;15377;48.540;9.268;2023-02-01T15:18:16;98090.03;;;5.48;100.00
5284;BME280;15377;48.540;9.268;2023-02-01T15:20:42;98089.16;;;5.51;100.00
5284;BME280;15377;48.540;9.268;2023-02-01T15:23:16;98093.50;;;5.48;100.00
5284;BME280;15377;48.540;9.268;2023-02-01T15:25:45;98093.50;;;5.48;100.00
5284;BME280;15377;48.540;9.268;2023-02-01T15:28:13;98100.88;;;5.51;100.00
5284;BME280;15377;48.540;9.268;2023-02-01T15:30:39;98086.25;;;5.42;100.00